sensor_id;sensor_type;location;lat;lon;timestamp;temperature;humidity
8892;DHT22;4482;54.332;10.118;2022-11-20T00:01:23;1.00;99.90
8892;DHT22;4482;54.332;10.118;2022-11-20T00:03:51;0.90;99.90
8892;DHT22;4482;54.332;10.118;2022-11-20T00:06:20;1.00;99.90
8892;DHT22;4482;54.332;10.118;2022-11-20T00:08:48;1.00;99.90
8892;DHT22;4482;54.332;10.118;2022-11-20T00:11:17;1.00;99.90
8892;DHT22;4482;54.332;10.118;2022-11-20T00:13:44;1.00;99.90
8892;DHT22;4482;54.332;10.118;2022-11-20T00:16:13;1.00;99.90
8892;DHT22;4482;54.332;10.118;2022-11-20T00:18:40;1.00;99.90
8892;DHT22;4482;54.332;10.118;2022-11-20T00:21:11;1.00;99.90
8892;DHT22;4482;54.332;10.118;2022-11-20T00:23:40;1.00;99.90
8892;DHT22;4482;54.332;10.118;2022-11-20T00:26:08;1.10;99.90
8892;DHT22;4482;54.332;10.118;2022-11-20T00:28:36;1.10;99.90
8892;DHT22;4482;54.332;10.118;2022-11-20T00:31:03;1.20;99.90
8892;DHT22;4482;54.332;10.118;2022-11-20T00:33:31;1.20;99.90
8892;DHT22;4482;54.332;10.118;2022-11-20T00:36:01;1.20;99.90
8892;DHT22;4482;54.332;10.118;2022-11-20T00:38:29;1.20;99.90
8892;DHT22;4482;54.332;10.118;2022-11-20T00:40:58;1.20;99.90
8892;DHT22;4482;54.332;10.118;2022-11-20T00:43:25;1.30;99.90
8892;DHT22;4482;54.332;10.118;2022-11-20T00:45:56;1.30;99.90
8892;DHT22;4482;54.332;10.118;2022-11-20T00:48:23;1.30;99.90
8892;DHT22;4482;54.332;10.118;2022-11-20T00:50:50;1.30;99.90
8892;DHT22;4482;54.332;10.118;2022-11-20T00:53:17;1.30;99.90
8892;DHT22;4482;54.332;10.118;2022-11-20T00:55:52;1.40;99.90
8892;DHT22;4482;54.332;10.118;2022-11-20T00:58:20;1.40;99.90
8892;DHT22;4482;54.332;10.118;2022-11-20T01:00:47;1.40;99.90
8892;DHT22;4482;54.332;10.118;2022-11-20T01:03:15;1.40;99.90
8892;DHT22;4482;54.332;10.118;2022-11-20T01:05:42;1.40;99.90
8892;DHT22;4482;54.332;10.118;2022-11-20T01:08:09;1.40;99.90
8892;DHT22;4482;54.332;10.118;2022-11-20T01:10:36;1.30;99.90
8892;DHT22;4482;54.332;10.118;2022-11-20T01:13:03;1.40;99.90
8892;DHT22;4482;54.332;10.118;2022-11-20T01:15:49;1.40;99.90
8892;DHT22;4482;54.332;10.118;2022-11-20T01:18:15;1.40;99.90
8892;DHT22;4482;54.332;10.118;2022-11-20T01:20:42;1.50;99.90
8892;DHT22;4482;54.332;10.118;2022-11-20T01:23:09;1.50;99.90
8892;DHT22;4482;54.332;10.118;2022-11-20T01:25:36;1.60;99.90
8892;DHT22;4482;54.332;10.118;2022-11-20T01:28:03;1.50;99.90
8892;DHT22;4482;54.332;10.118;2022-11-20T01:30:30;1.50;99.90
8892;DHT22;4482;54.332;10.118;2022-11-20T01:32:58;1.50;99.90
8892;DHT22;4482;54.332;10.118;2022-11-20T01:35:24;1.50;99.90
8892;DHT22;4482;54.332;10.118;2022-11-20T01:37:51;1.60;99.90
8892;DHT22;4482;54.332;10.118;2022-11-20T01:40:18;1.50;99.90
8892;DHT22;4482;54.332;10.118;2022-11-20T01:42:47;1.50;99.90
8892;DHT22;4482;54.332;10.118;2022-11-20T01:45:54;1.50;99.90
8892;DHT22;4482;54.332;10.118;2022-11-20T01:48:26;1.50;99.90
8892;DHT22;4482;54.332;10.118;2022-11-20T01:50:54;1.60;99.90
8892;DHT22;4482;54.332;10.118;2022-11-20T01:53:26;1.50;99.90
8892;DHT22;4482;54.332;10.118;2022-11-20T01:55:56;1.50;99.90
8892;DHT22;4482;54.332;10.118;2022-11-20T01:58:27;1.50;99.90
8892;DHT22;4482;54.332;10.118;2022-11-20T02:00:55;1.50;99.90
8892;DHT22;4482;54.332;10.118;2022-11-20T02:03:23;1.50;99.90
8892;DHT22;4482;54.332;10.118;2022-11-20T02:05:53;1.60;99.90
8892;DHT22;4482;54.332;10.118;2022-11-20T02:08:23;1.50;99.90
8892;DHT22;4482;54.332;10.118;2022-11-20T02:10:50;1.50;99.90
8892;DHT22;4482;54.332;10.118;2022-11-20T02:13:17;1.50;99.90
8892;DHT22;4482;54.332;10.118;2022-11-20T02:16:02;1.50;99.90
8892;DHT22;4482;54.332;10.118;2022-11-20T02:18:31;1.60;99.90
8892;DHT22;4482;54.332;10.118;2022-11-20T02:21:03;1.60;99.90
8892;DHT22;4482;54.332;10.118;2022-11-20T02:23:35;1.60;99.90
8892;DHT22;4482;54.332;10.118;2022-11-20T02:26:10;1.60;99.90
8892;DHT22;4482;54.332;10.118;2022-11-20T02:28:37;1.70;99.90
8892;DHT22;4482;54.332;10.118;2022-11-20T02:31:04;1.70;99.90
8892;DHT22;4482;54.332;10.118;2022-11-20T02:33:31;1.70;99.90
8892;DHT22;4482;54.332;10.118;2022-11-20T02:35:58;1.60;99.90
8892;DHT22;4482;54.332;10.118;2022-11-20T02:38:24;1.70;99.90
8892;DHT22;4482;54.332;10.118;2022-11-20T02:40:51;1.70;99.90
8892;DHT22;4482;54.332;10.118;2022-11-20T02:43:19;1.70;99.90
8892;DHT22;4482;54.332;10.118;2022-11-20T02:45:46;1.70;99.90
8892;DHT22;4482;54.332;10.118;2022-11-20T02:48:13;1.60;99.90
8892;DHT22;4482;54.332;10.118;2022-11-20T02:50:40;1.60;99.90
8892;DHT22;4482;54.332;10.118;2022-11-20T02:53:07;1.70;99.90
8892;DHT22;4482;54.332;10.118;2022-11-20T02:55:34;1.60;99.90
8892;DHT22;4482;54.332;10.118;2022-11-20T02:58:01;1.60;99.90
8892;DHT22;4482;54.332;10.118;2022-11-20T03:00:29;1.50;99.90
8892;DHT22;4482;54.332;10.118;2022-11-20T03:02:56;1.50;99.90
8892;DHT22;4482;54.332;10.118;2022-11-20T03:05:23;1.50;99.90
8892;DHT22;4482;54.332;10.118;2022-11-20T03:07:49;1.50;99.90
8892;DHT22;4482;54.332;10.118;2022-11-20T03:10:17;1.60;99.90
8892;DHT22;4482;54.332;10.118;2022-11-20T03:12:44;1.60;99.90
8892;DHT22;4482;54.332;10.118;2022-11-20T03:15:11;1.60;99.90
8892;DHT22;4482;54.332;10.118;2022-11-20T03:17:39;1.60;99.90
8892;DHT22;4482;54.332;10.118;2022-11-20T03:20:08;1.60;99.90
8892;DHT22;4482;54.332;10.118;2022-11-20T03:22:35;1.70;99.90
8892;DHT22;4482;54.332;10.118;2022-11-20T03:25:02;1.70;99.90
8892;DHT22;4482;54.332;10.118;2022-11-20T03:27:32;1.70;99.90
8892;DHT22;4482;54.332;10.118;2022-11-20T03:29:59;1.70;99.90
8892;DHT22;4482;54.332;10.118;2022-11-20T03:32:26;1.70;99.90
8892;DHT22;4482;54.332;10.118;2022-11-20T03:34:54;1.70;99.90
8892;DHT22;4482;54.332;10.118;2022-11-20T03:37:21;1.70;99.90
8892;DHT22;4482;54.332;10.118;2022-11-20T03:39:48;1.70;99.90
8892;DHT22;4482;54.332;10.118;2022-11-20T03:42:15;1.60;99.90
8892;DHT22;4482;54.332;10.118;2022-11-20T03:44:56;1.60;99.90
8892;DHT22;4482;54.332;10.118;2022-11-20T03:47:23;1.60;99.90
8892;DHT22;4482;54.332;10.118;2022-11-20T03:49:49;1.50;99.90
8892;DHT22;4482;54.332;10.118;2022-11-20T03:52:18;1.40;99.90
8892;DHT22;4482;54.332;10.118;2022-11-20T03:54:44;1.30;99.90
8892;DHT22;4482;54.332;10.118;2022-11-20T03:57:11;1.10;99.90
8892;DHT22;4482;54.332;10.118;2022-11-20T03:59:38;1.00;99.90
8892;DHT22;4482;54.332;10.118;2022-11-20T04:02:05;1.00;99.90
8892;DHT22;4482;54.332;10.118;2022-11-20T04:04:31;0.90;99.90
8892;DHT22;4482;54.332;10.118;2022-11-20T04:06:58;0.90;99.90
8892;DHT22;4482;54.332;10.118;2022-11-20T04:09:27;0.90;99.90
8892;DHT22;4482;54.332;10.118;2022-11-20T04:11:53;0.90;99.90
8892;DHT22;4482;54.332;10.118;2022-11-20T04:14:20;0.90;99.90
8892;DHT22;4482;54.332;10.118;2022-11-20T04:16:47;0.90;99.90
8892;DHT22;4482;54.332;10.118;2022-11-20T04:19:15;1.00;99.90
8892;DHT22;4482;54.332;10.118;2022-11-20T04:21:42;1.00;99.90
8892;DHT22;4482;54.332;10.118;2022-11-20T04:24:09;1.00;99.90
8892;DHT22;4482;54.332;10.118;2022-11-20T04:26:38;1.10;99.90
8892;DHT22;4482;54.332;10.118;2022-11-20T04:29:05;1.10;99.90
8892;DHT22;4482;54.332;10.118;2022-11-20T04:31:34;1.10;99.90
8892;DHT22;4482;54.332;10.118;2022-11-20T04:34:02;1.10;99.90
8892;DHT22;4482;54.332;10.118;2022-11-20T04:36:30;1.10;99.90
8892;DHT22;4482;54.332;10.118;2022-11-20T04:38:58;1.00;99.90
8892;DHT22;4482;54.332;10.118;2022-11-20T04:41:27;1.00;99.90
8892;DHT22;4482;54.332;10.118;2022-11-20T04:43:57;0.90;99.90
8892;DHT22;4482;54.332;10.118;2022-11-20T04:46:27;0.90;99.90
8892;DHT22;4482;54.332;10.118;2022-11-20T04:48:54;0.90;99.90
8892;DHT22;4482;54.332;10.118;2022-11-20T04:51:21;0.90;99.90
8892;DHT22;4482;54.332;10.118;2022-11-20T04:53:48;0.90;99.90
8892;DHT22;4482;54.332;10.118;2022-11-20T04:56:15;0.90;99.90
8892;DHT22;4482;54.332;10.118;2022-11-20T04:58:42;0.90;99.90
8892;DHT22;4482;54.332;10.118;2022-11-20T05:01:12;0.90;99.90
8892;DHT22;4482;54.332;10.118;2022-11-20T05:03:40;0.90;99.90
8892;DHT22;4482;54.332;10.118;2022-11-20T05:06:07;0.90;99.90
8892;DHT22;4482;54.332;10.118;2022-11-20T05:08:34;0.80;99.90
8892;DHT22;4482;54.332;10.118;2022-11-20T05:11:02;0.80;99.90
8892;DHT22;4482;54.332;10.118;2022-11-20T05:13:30;0.80;99.90
8892;DHT22;4482;54.332;10.118;2022-11-20T05:16:01;0.80;99.90
8892;DHT22;4482;54.332;10.118;2022-11-20T05:18:29;0.80;99.90
8892;DHT22;4482;54.332;10.118;2022-11-20T05:20:59;0.90;99.90
8892;DHT22;4482;54.332;10.118;2022-11-20T05:23:26;0.80;99.90
8892;DHT22;4482;54.332;10.118;2022-11-20T05:25:53;0.80;99.90
8892;DHT22;4482;54.332;10.118;2022-11-20T05:28:21;0.90;99.90
8892;DHT22;4482;54.332;10.118;2022-11-20T05:30:48;1.10;99.90
8892;DHT22;4482;54.332;10.118;2022-11-20T05:33:15;1.30;99.90
8892;DHT22;4482;54.332;10.118;2022-11-20T05:35:44;1.20;99.90
8892;DHT22;4482;54.332;10.118;2022-11-20T05:38:11;1.10;99.90
8892;DHT22;4482;54.332;10.118;2022-11-20T05:40:37;1.00;99.90
8892;DHT22;4482;54.332;10.118;2022-11-20T05:43:04;1.00;99.90
8892;DHT22;4482;54.332;10.118;2022-11-20T05:45:31;1.00;99.90
8892;DHT22;4482;54.332;10.118;2022-11-20T05:47:58;1.00;99.90
8892;DHT22;4482;54.332;10.118;2022-11-20T05:50:26;1.00;99.90
8892;DHT22;4482;54.332;10.118;2022-11-20T05:52:54;1.00;99.90
8892;DHT22;4482;54.332;10.118;2022-11-20T05:55:21;1.00;99.90
8892;DHT22;4482;54.332;10.118;2022-11-20T05:57:48;1.00;99.90
8892;DHT22;4482;54.332;10.118;2022-11-20T06:00:15;1.00;99.90
8892;DHT22;4482;54.332;10.118;2022-11-20T06:02:42;1.00;99.90
8892;DHT22;4482;54.332;10.118;2022-11-20T06:05:09;1.00;99.90
8892;DHT22;4482;54.332;10.118;2022-11-20T06:07:36;1.00;99.90
8892;DHT22;4482;54.332;10.118;2022-11-20T06:10:05;1.00;99.90
8892;DHT22;4482;54.332;10.118;2022-11-20T06:12:32;1.00;99.90
8892;DHT22;4482;54.332;10.118;2022-11-20T06:14:59;1.00;99.90
8892;DHT22;4482;54.332;10.118;2022-11-20T06:17:26;1.00;99.90
8892;DHT22;4482;54.332;10.118;2022-11-20T06:19:53;1.00;99.90
8892;DHT22;4482;54.332;10.118;2022-11-20T06:22:20;1.00;99.90
8892;DHT22;4482;54.332;10.118;2022-11-20T06:24:47;1.00;99.90
8892;DHT22;4482;54.332;10.118;2022-11-20T06:27:15;1.00;99.90
8892;DHT22;4482;54.332;10.118;2022-11-20T06:29:43;1.00;99.90
8892;DHT22;4482;54.332;10.118;2022-11-20T06:32:10;1.00;99.90
8892;DHT22;4482;54.332;10.118;2022-11-20T06:34:37;1.00;99.90
8892;DHT22;4482;54.332;10.118;2022-11-20T06:37:03;1.00;99.90
8892;DHT22;4482;54.332;10.118;2022-11-20T06:39:30;1.00;99.90
8892;DHT22;4482;54.332;10.118;2022-11-20T06:41:57;1.00;99.90
8892;DHT22;4482;54.332;10.118;2022-11-20T06:44:25;1.00;99.90
8892;DHT22;4482;54.332;10.118;2022-11-20T06:46:52;1.00;99.90
8892;DHT22;4482;54.332;10.118;2022-11-20T06:49:19;1.00;99.90
8892;DHT22;4482;54.332;10.118;2022-11-20T06:51:45;1.00;99.90
8892;DHT22;4482;54.332;10.118;2022-11-20T06:54:12;1.20;99.90
8892;DHT22;4482;54.332;10.118;2022-11-20T06:56:39;1.70;99.90
8892;DHT22;4482;54.332;10.118;2022-11-20T06:59:06;1.70;99.90
8892;DHT22;4482;54.332;10.118;2022-11-20T07:01:35;1.50;99.90
8892;DHT22;4482;54.332;10.118;2022-11-20T07:04:01;1.30;99.90
8892;DHT22;4482;54.332;10.118;2022-11-20T07:06:29;1.20;99.90
8892;DHT22;4482;54.332;10.118;2022-11-20T07:08:56;1.10;99.90
8892;DHT22;4482;54.332;10.118;2022-11-20T07:11:23;1.00;99.90
8892;DHT22;4482;54.332;10.118;2022-11-20T07:13:50;0.90;99.90
8892;DHT22;4482;54.332;10.118;2022-11-20T07:16:17;0.90;99.90
8892;DHT22;4482;54.332;10.118;2022-11-20T07:18:45;0.90;99.90
8892;DHT22;4482;54.332;10.118;2022-11-20T07:21:11;1.00;99.90
8892;DHT22;4482;54.332;10.118;2022-11-20T07:23:38;1.10;99.90
8892;DHT22;4482;54.332;10.118;2022-11-20T07:26:06;1.10;99.90
8892;DHT22;4482;54.332;10.118;2022-11-20T07:28:33;1.20;99.90
8892;DHT22;4482;54.332;10.118;2022-11-20T07:31:00;1.30;99.90
8892;DHT22;4482;54.332;10.118;2022-11-20T07:33:28;1.30;99.90
8892;DHT22;4482;54.332;10.118;2022-11-20T07:35:58;1.40;99.90
8892;DHT22;4482;54.332;10.118;2022-11-20T07:38:25;1.50;99.90
8892;DHT22;4482;54.332;10.118;2022-11-20T07:40:54;1.40;99.90
8892;DHT22;4482;54.332;10.118;2022-11-20T07:43:23;1.40;99.90
8892;DHT22;4482;54.332;10.118;2022-11-20T07:45:55;1.40;99.90
8892;DHT22;4482;54.332;10.118;2022-11-20T07:48:23;1.40;99.90
8892;DHT22;4482;54.332;10.118;2022-11-20T07:50:53;1.40;99.90
8892;DHT22;4482;54.332;10.118;2022-11-20T07:53:23;1.20;99.90
8892;DHT22;4482;54.332;10.118;2022-11-20T07:55:51;1.20;99.90
8892;DHT22;4482;54.332;10.118;2022-11-20T07:58:18;1.20;99.90
8892;DHT22;4482;54.332;10.118;2022-11-20T08:00:46;1.20;99.90
8892;DHT22;4482;54.332;10.118;2022-11-20T08:03:13;1.30;99.90
8892;DHT22;4482;54.332;10.118;2022-11-20T08:05:40;1.30;99.90
8892;DHT22;4482;54.332;10.118;2022-11-20T08:08:08;1.30;99.90
8892;DHT22;4482;54.332;10.118;2022-11-20T08:10:37;1.40;99.90
8892;DHT22;4482;54.332;10.118;2022-11-20T08:13:05;1.40;99.90
8892;DHT22;4482;54.332;10.118;2022-11-20T08:15:50;1.50;99.90
8892;DHT22;4482;54.332;10.118;2022-11-20T08:18:18;1.50;99.90
8892;DHT22;4482;54.332;10.118;2022-11-20T08:20:45;1.50;99.90
8892;DHT22;4482;54.332;10.118;2022-11-20T08:23:12;1.50;99.90
8892;DHT22;4482;54.332;10.118;2022-11-20T08:25:41;1.50;99.90
8892;DHT22;4482;54.332;10.118;2022-11-20T08:28:10;1.60;99.90
8892;DHT22;4482;54.332;10.118;2022-11-20T08:30:41;1.60;99.90
8892;DHT22;4482;54.332;10.118;2022-11-20T08:33:09;1.80;99.90
8892;DHT22;4482;54.332;10.118;2022-11-20T08:35:37;2.00;99.90
8892;DHT22;4482;54.332;10.118;2022-11-20T08:38:07;2.20;99.90
8892;DHT22;4482;54.332;10.118;2022-11-20T08:40:36;2.10;99.90
8892;DHT22;4482;54.332;10.118;2022-11-20T08:43:04;2.10;99.90
8892;DHT22;4482;54.332;10.118;2022-11-20T08:45:31;2.00;99.90
8892;DHT22;4482;54.332;10.118;2022-11-20T08:48:00;1.90;99.90
8892;DHT22;4482;54.332;10.118;2022-11-20T08:50:26;1.90;99.90
8892;DHT22;4482;54.332;10.118;2022-11-20T08:52:53;1.90;99.90
8892;DHT22;4482;54.332;10.118;2022-11-20T08:55:20;1.80;99.90
8892;DHT22;4482;54.332;10.118;2022-11-20T08:57:47;1.90;99.90
8892;DHT22;4482;54.332;10.118;2022-11-20T09:00:16;1.90;99.90
8892;DHT22;4482;54.332;10.118;2022-11-20T09:02:43;1.80;99.90
8892;DHT22;4482;54.332;10.118;2022-11-20T09:05:10;1.90;99.90
8892;DHT22;4482;54.332;10.118;2022-11-20T09:07:37;1.90;99.90
8892;DHT22;4482;54.332;10.118;2022-11-20T09:10:04;1.90;99.90
8892;DHT22;4482;54.332;10.118;2022-11-20T09:12:33;1.90;99.90
8892;DHT22;4482;54.332;10.118;2022-11-20T09:15:00;1.90;99.90
8892;DHT22;4482;54.332;10.118;2022-11-20T09:17:29;1.90;99.90
8892;DHT22;4482;54.332;10.118;2022-11-20T09:19:56;1.90;99.90
8892;DHT22;4482;54.332;10.118;2022-11-20T09:22:23;2.00;99.90
8892;DHT22;4482;54.332;10.118;2022-11-20T09:24:50;2.00;99.90
8892;DHT22;4482;54.332;10.118;2022-11-20T09:27:17;2.10;99.90
8892;DHT22;4482;54.332;10.118;2022-11-20T09:29:47;2.10;99.90
8892;DHT22;4482;54.332;10.118;2022-11-20T09:32:13;2.20;99.90
8892;DHT22;4482;54.332;10.118;2022-11-20T09:34:41;2.20;99.90
8892;DHT22;4482;54.332;10.118;2022-11-20T09:37:08;2.30;99.90
8892;DHT22;4482;54.332;10.118;2022-11-20T09:39:35;2.30;99.90
8892;DHT22;4482;54.332;10.118;2022-11-20T09:42:15;2.30;99.90
8892;DHT22;4482;54.332;10.118;2022-11-20T09:45:10;2.30;99.90
8892;DHT22;4482;54.332;10.118;2022-11-20T09:47:52;2.30;99.90
8892;DHT22;4482;54.332;10.118;2022-11-20T09:50:30;2.20;99.90
8892;DHT22;4482;54.332;10.118;2022-11-20T09:53:12;2.20;99.90
8892;DHT22;4482;54.332;10.118;2022-11-20T09:55:40;2.10;99.90
8892;DHT22;4482;54.332;10.118;2022-11-20T09:58:11;2.10;99.90
8892;DHT22;4482;54.332;10.118;2022-11-20T10:00:39;2.10;99.90
8892;DHT22;4482;54.332;10.118;2022-11-20T10:03:14;2.00;99.90
8892;DHT22;4482;54.332;10.118;2022-11-20T10:05:47;2.00;99.90
8892;DHT22;4482;54.332;10.118;2022-11-20T10:08:17;2.10;99.90
8892;DHT22;4482;54.332;10.118;2022-11-20T10:10:47;2.10;99.90
8892;DHT22;4482;54.332;10.118;2022-11-20T10:13:33;2.10;99.90
8892;DHT22;4482;54.332;10.118;2022-11-20T10:16:13;2.10;99.90
8892;DHT22;4482;54.332;10.118;2022-11-20T10:18:53;2.10;99.90
8892;DHT22;4482;54.332;10.118;2022-11-20T10:21:29;2.00;99.90
8892;DHT22;4482;54.332;10.118;2022-11-20T10:30:02;2.10;99.90
8892;DHT22;4482;54.332;10.118;2022-11-20T10:32:35;2.10;99.90
8892;DHT22;4482;54.332;10.118;2022-11-20T10:35:06;2.30;99.90
8892;DHT22;4482;54.332;10.118;2022-11-20T10:37:38;2.30;99.90
8892;DHT22;4482;54.332;10.118;2022-11-20T10:40:22;2.30;99.90
8892;DHT22;4482;54.332;10.118;2022-11-20T10:42:53;2.30;99.90
8892;DHT22;4482;54.332;10.118;2022-11-20T10:45:33;2.30;99.90
8892;DHT22;4482;54.332;10.118;2022-11-20T10:48:11;2.30;99.90
8892;DHT22;4482;54.332;10.118;2022-11-20T10:50:47;2.20;99.90
8892;DHT22;4482;54.332;10.118;2022-11-20T10:53:32;2.20;99.90
8892;DHT22;4482;54.332;10.118;2022-11-20T10:56:05;2.20;99.90
8892;DHT22;4482;54.332;10.118;2022-11-20T10:58:38;2.30;99.90
8892;DHT22;4482;54.332;10.118;2022-11-20T11:01:14;2.20;99.90
8892;DHT22;4482;54.332;10.118;2022-11-20T11:03:42;2.20;99.90
8892;DHT22;4482;54.332;10.118;2022-11-20T11:06:14;2.20;99.90
8892;DHT22;4482;54.332;10.118;2022-11-20T11:08:47;2.20;99.90
8892;DHT22;4482;54.332;10.118;2022-11-20T11:11:21;2.30;99.90
8892;DHT22;4482;54.332;10.118;2022-11-20T11:13:49;2.20;99.90
8892;DHT22;4482;54.332;10.118;2022-11-20T11:16:20;2.30;99.90
8892;DHT22;4482;54.332;10.118;2022-11-20T11:18:47;2.30;99.90
8892;DHT22;4482;54.332;10.118;2022-11-20T11:21:21;2.30;99.90
8892;DHT22;4482;54.332;10.118;2022-11-20T11:23:57;2.30;99.90
8892;DHT22;4482;54.332;10.118;2022-11-20T11:26:25;2.30;99.90
8892;DHT22;4482;54.332;10.118;2022-11-20T11:28:54;2.40;99.90
8892;DHT22;4482;54.332;10.118;2022-11-20T11:31:25;2.30;99.90
8892;DHT22;4482;54.332;10.118;2022-11-20T11:34:03;2.20;99.90
8892;DHT22;4482;54.332;10.118;2022-11-20T11:36:30;2.20;99.90
8892;DHT22;4482;54.332;10.118;2022-11-20T11:38:58;2.10;99.90
8892;DHT22;4482;54.332;10.118;2022-11-20T11:41:29;2.20;99.90
8892;DHT22;4482;54.332;10.118;2022-11-20T11:44:01;2.20;99.90
8892;DHT22;4482;54.332;10.118;2022-11-20T11:46:51;2.30;99.90
8892;DHT22;4482;54.332;10.118;2022-11-20T11:49:20;2.20;99.90
8892;DHT22;4482;54.332;10.118;2022-11-20T11:52:00;2.20;99.90
8892;DHT22;4482;54.332;10.118;2022-11-20T11:54:35;2.20;99.90
8892;DHT22;4482;54.332;10.118;2022-11-20T11:57:12;2.20;99.90
8892;DHT22;4482;54.332;10.118;2022-11-20T11:59:49;2.20;99.90
8892;DHT22;4482;54.332;10.118;2022-11-20T12:02:29;2.30;99.90
8892;DHT22;4482;54.332;10.118;2022-11-20T12:05:03;2.20;99.90
8892;DHT22;4482;54.332;10.118;2022-11-20T12:07:39;2.30;99.90
8892;DHT22;4482;54.332;10.118;2022-11-20T12:10:17;2.40;99.90
8892;DHT22;4482;54.332;10.118;2022-11-20T12:12:48;2.40;99.90
8892;DHT22;4482;54.332;10.118;2022-11-20T12:15:25;2.50;99.90
8892;DHT22;4482;54.332;10.118;2022-11-20T12:17:52;2.40;99.90
8892;DHT22;4482;54.332;10.118;2022-11-20T12:20:21;2.50;99.90
8892;DHT22;4482;54.332;10.118;2022-11-20T12:22:56;2.50;99.90
8892;DHT22;4482;54.332;10.118;2022-11-20T12:25:30;2.50;99.90
8892;DHT22;4482;54.332;10.118;2022-11-20T12:30:59;2.50;99.90
8892;DHT22;4482;54.332;10.118;2022-11-20T12:33:49;2.50;99.90
8892;DHT22;4482;54.332;10.118;2022-11-20T12:36:27;2.50;99.90
8892;DHT22;4482;54.332;10.118;2022-11-20T12:42:09;2.60;99.90
8892;DHT22;4482;54.332;10.118;2022-11-20T12:45:08;2.60;99.90
8892;DHT22;4482;54.332;10.118;2022-11-20T12:48:02;2.50;99.90
8892;DHT22;4482;54.332;10.118;2022-11-20T12:50:40;2.60;99.90
8892;DHT22;4482;54.332;10.118;2022-11-20T12:53:24;2.60;99.90
8892;DHT22;4482;54.332;10.118;2022-11-20T12:55:58;2.70;99.90
8892;DHT22;4482;54.332;10.118;2022-11-20T12:58:38;2.80;99.90
8892;DHT22;4482;54.332;10.118;2022-11-20T13:01:23;2.80;99.90
8892;DHT22;4482;54.332;10.118;2022-11-20T13:04:13;2.70;99.90
8892;DHT22;4482;54.332;10.118;2022-11-20T13:06:43;2.60;99.90
8892;DHT22;4482;54.332;10.118;2022-11-20T13:09:13;2.60;99.90
8892;DHT22;4482;54.332;10.118;2022-11-20T13:11:44;2.50;99.90
8892;DHT22;4482;54.332;10.118;2022-11-20T13:14:24;2.50;99.90
8892;DHT22;4482;54.332;10.118;2022-11-20T13:16:58;2.50;99.90
8892;DHT22;4482;54.332;10.118;2022-11-20T13:19:25;2.60;99.90
8892;DHT22;4482;54.332;10.118;2022-11-20T13:21:54;2.70;99.90
8892;DHT22;4482;54.332;10.118;2022-11-20T13:24:23;2.70;99.90
8892;DHT22;4482;54.332;10.118;2022-11-20T13:27:18;2.80;99.90
8892;DHT22;4482;54.332;10.118;2022-11-20T13:29:58;2.90;99.90
8892;DHT22;4482;54.332;10.118;2022-11-20T13:32:26;2.90;99.90
8892;DHT22;4482;54.332;10.118;2022-11-20T13:34:59;3.00;99.90
8892;DHT22;4482;54.332;10.118;2022-11-20T13:37:29;3.10;99.90
8892;DHT22;4482;54.332;10.118;2022-11-20T13:40:13;3.10;99.90
8892;DHT22;4482;54.332;10.118;2022-11-20T13:42:54;3.00;99.90
8892;DHT22;4482;54.332;10.118;2022-11-20T13:45:27;3.00;99.90
8892;DHT22;4482;54.332;10.118;2022-11-20T13:47:56;2.90;99.90
8892;DHT22;4482;54.332;10.118;2022-11-20T13:50:39;2.90;99.90
8892;DHT22;4482;54.332;10.118;2022-11-20T13:53:21;2.90;99.90
8892;DHT22;4482;54.332;10.118;2022-11-20T13:55:54;2.90;99.90
8892;DHT22;4482;54.332;10.118;2022-11-20T13:58:28;2.90;99.90
8892;DHT22;4482;54.332;10.118;2022-11-20T14:01:07;2.80;99.90
8892;DHT22;4482;54.332;10.118;2022-11-20T14:03:35;2.80;99.90
8892;DHT22;4482;54.332;10.118;2022-11-20T14:06:04;2.70;99.90
8892;DHT22;4482;54.332;10.118;2022-11-20T14:08:36;2.70;99.90
8892;DHT22;4482;54.332;10.118;2022-11-20T14:11:05;2.70;99.90
8892;DHT22;4482;54.332;10.118;2022-11-20T14:13:33;2.70;99.90
8892;DHT22;4482;54.332;10.118;2022-11-20T14:16:01;2.70;99.90
8892;DHT22;4482;54.332;10.118;2022-11-20T14:18:28;2.60;99.90
8892;DHT22;4482;54.332;10.118;2022-11-20T14:20:55;2.70;99.90
8892;DHT22;4482;54.332;10.118;2022-11-20T14:23:26;2.60;99.90
8892;DHT22;4482;54.332;10.118;2022-11-20T14:25:54;2.50;99.90
8892;DHT22;4482;54.332;10.118;2022-11-20T14:28:26;2.50;99.90
8892;DHT22;4482;54.332;10.118;2022-11-20T14:30:54;2.60;99.90
8892;DHT22;4482;54.332;10.118;2022-11-20T14:33:23;2.60;99.90
8892;DHT22;4482;54.332;10.118;2022-11-20T14:35:53;2.60;99.90
8892;DHT22;4482;54.332;10.118;2022-11-20T14:38:23;2.50;99.90
8892;DHT22;4482;54.332;10.118;2022-11-20T14:40:50;2.50;99.90
8892;DHT22;4482;54.332;10.118;2022-11-20T14:43:21;2.50;99.90
8892;DHT22;4482;54.332;10.118;2022-11-20T14:45:55;2.40;99.90
8892;DHT22;4482;54.332;10.118;2022-11-20T14:48:29;2.30;99.90
8892;DHT22;4482;54.332;10.118;2022-11-20T14:51:02;2.30;99.90
8892;DHT22;4482;54.332;10.118;2022-11-20T14:53:36;2.20;99.90
8892;DHT22;4482;54.332;10.118;2022-11-20T14:56:03;2.10;99.90
8892;DHT22;4482;54.332;10.118;2022-11-20T14:58:32;2.10;99.90
8892;DHT22;4482;54.332;10.118;2022-11-20T15:01:01;2.00;99.90
8892;DHT22;4482;54.332;10.118;2022-11-20T15:03:34;2.00;99.90
8892;DHT22;4482;54.332;10.118;2022-11-20T15:06:02;1.80;99.90
8892;DHT22;4482;54.332;10.118;2022-11-20T15:08:29;1.80;99.90
8892;DHT22;4482;54.332;10.118;2022-11-20T15:10:56;1.80;99.90
8892;DHT22;4482;54.332;10.118;2022-11-20T15:13:26;1.70;99.90
8892;DHT22;4482;54.332;10.118;2022-11-20T15:15:56;1.70;99.90
8892;DHT22;4482;54.332;10.118;2022-11-20T15:18:27;1.70;99.90
8892;DHT22;4482;54.332;10.118;2022-11-20T15:20:57;1.60;99.90
8892;DHT22;4482;54.332;10.118;2022-11-20T15:23:26;1.60;99.90
8892;DHT22;4482;54.332;10.118;2022-11-20T15:25:53;1.60;99.90
8892;DHT22;4482;54.332;10.118;2022-11-20T15:28:23;1.60;99.90
8892;DHT22;4482;54.332;10.118;2022-11-20T15:30:52;1.70;99.90
8892;DHT22;4482;54.332;10.118;2022-11-20T15:33:19;1.60;99.90
8892;DHT22;4482;54.332;10.118;2022-11-20T15:35:46;1.60;99.90
8892;DHT22;4482;54.332;10.118;2022-11-20T15:38:14;1.60;99.90
8892;DHT22;4482;54.332;10.118;2022-11-20T15:40:41;1.60;99.90
8892;DHT22;4482;54.332;10.118;2022-11-20T15:43:07;1.60;99.90
8892;DHT22;4482;54.332;10.118;2022-11-20T15:45:38;1.50;99.90
8892;DHT22;4482;54.332;10.118;2022-11-20T15:48:09;1.50;99.90
8892;DHT22;4482;54.332;10.118;2022-11-20T15:50:40;1.40;99.90
8892;DHT22;4482;54.332;10.118;2022-11-20T15:53:10;1.40;99.90
8892;DHT22;4482;54.332;10.118;2022-11-20T15:55:38;1.40;99.90
8892;DHT22;4482;54.332;10.118;2022-11-20T15:58:05;1.40;99.90
8892;DHT22;4482;54.332;10.118;2022-11-20T16:00:32;1.30;99.90
8892;DHT22;4482;54.332;10.118;2022-11-20T16:02:59;1.30;99.90
8892;DHT22;4482;54.332;10.118;2022-11-20T16:05:28;1.30;99.90
8892;DHT22;4482;54.332;10.118;2022-11-20T16:07:55;1.40;99.90
8892;DHT22;4482;54.332;10.118;2022-11-20T16:10:22;1.40;99.90
8892;DHT22;4482;54.332;10.118;2022-11-20T16:12:50;1.40;99.90
8892;DHT22;4482;54.332;10.118;2022-11-20T16:15:31;1.40;99.90
8892;DHT22;4482;54.332;10.118;2022-11-20T16:18:15;1.50;99.90
8892;DHT22;4482;54.332;10.118;2022-11-20T16:20:42;1.40;99.90
8892;DHT22;4482;54.332;10.118;2022-11-20T16:23:09;1.40;99.90
8892;DHT22;4482;54.332;10.118;2022-11-20T16:25:36;1.40;99.90
8892;DHT22;4482;54.332;10.118;2022-11-20T16:28:05;1.30;99.90
8892;DHT22;4482;54.332;10.118;2022-11-20T16:30:32;1.30;99.90
8892;DHT22;4482;54.332;10.118;2022-11-20T16:32:59;1.20;99.90